Flight Track Log - Related Links

Times and Time Zones

All times are in EDT time to prevent confusion due to time zone crossing. See the AAL117 flight status page for this flight to view local times or setup timezone preferences in your user account.

Time Position Orientation Groundspeed Altitude Reporting Facility
EDT Latitude Longitude Course Direction KTS MPH feet Rate Location/Type
Wed 02:44:28 PM 40.6500 -73.8333 237° Southwest 177 204 1,700  Level New York TRACON
Wed 02:45:22 PM 40.6167 -73.9000 237° Southwest 238 274 3,400 2,474 Climbing New York TRACON
Wed 02:46:00 PM 40.4291 -74.1085 237° Southwest  Level FlightAware Approximate
Wed 02:46:22 PM 40.5500 -73.9500 210° Southwest 273 314 6,400  Level New York TRACON
Wed 02:47:00 PM 40.3558 -74.2182 232° Southwest  Level FlightAware Approximate
Wed 02:47:22 PM 40.4833 -74.0000 210° Southwest 279 321 9,700  Level New York TRACON
Wed 02:48:00 PM 40.2868 -74.3332 232° Southwest  Level FlightAware Approximate
Wed 02:48:22 PM 40.4167 -74.0500 210° Southwest 295 339 11,100  Level New York TRACON
Wed 02:49:00 PM 40.2251 -74.4497 237° Southwest  Level FlightAware Approximate
Wed 02:50:06 PM 40.3381 -74.2292 240° Southwest 355 409 14,200  Level New York Center
Wed 02:51:07 PM 40.2739 -74.3564 237° Southwest 375 432 16,700 1,388 Climbing New York Center
Wed 02:52:07 PM 40.2206 -74.4625 237° Southwest 387 445 17,000 1,041 Climbing New York Center
Wed 02:53:08 PM 40.1950 -74.6050 257° West 373 429 18,800 1,815 Climbing New York Center
Wed 02:54:06 PM 40.1819 -74.7483 263° West 386 444 20,600 1,850 Climbing New York Center
Wed 02:55:08 PM 40.1728 -74.8972 265° West 403 464 22,500 1,900 Climbing New York Center
Wed 02:56:06 PM 40.1611 -75.0458 264° West 403 464 24,400 1,932 Climbing New York Center
Wed 02:57:06 PM 40.1472 -75.1997 263° West 416 479 26,300 1,736 Climbing New York Center
Wed 02:58:07 PM 40.1356 -75.3375 264° West 429 494 27,900 1,388 Climbing New York Center
Wed 02:59:07 PM 40.1231 -75.4942 264° West 435 501 29,100 1,450 Climbing New York Center
Wed 03:00:07 PM 40.1106 -75.6508 264° West 435 501 30,800 1,587 Climbing New York Center
Wed 03:01:08 PM 40.1103 -75.8083 270° West 440 506 32,300 1,488 Climbing New York Center
Wed 03:02:08 PM 40.1117 -75.9658 271° West 440 506 33,800 814 Climbing New York Center
Wed 03:03:06 PM 40.1089 -76.1231 269° West 440 506 33,900 555 Climbing New York Center
Wed 03:04:07 PM 40.1072 -76.2911 269° West 440 506 34,900 1,033 Climbing New York Center
Wed 03:05:08 PM 40.1067 -76.4378 270° West 428 493 36,000 541 Climbing New York Center
Wed 03:06:09 PM 40.1056 -76.5897 270° West 422 486 36,000  Level New York Center
Wed 03:07:06 PM 40.1083 -76.7392 271° West 422 486 36,000  Level New York Center
Wed 03:08:06 PM 40.1050 -76.8856 268° West 417 480 36,000  Level New York Center
Wed 03:10:08 PM 40.1056 -77.1708 270° West 420 483 36,000  Level Cleveland Center
Wed 03:11:08 PM 40.1058 -77.3203 270° West 420 483 36,000  Level Cleveland Center
Wed 03:12:08 PM 40.1039 -77.4697 269° West 420 483 36,000  Level Cleveland Center
Wed 03:13:08 PM 40.1017 -77.6217 269° West 420 483 36,000  Level Cleveland Center
Wed 03:14:08 PM 40.0992 -77.7711 269° West 420 483 36,000  Level Cleveland Center
Wed 03:15:08 PM 40.0928 -77.9369 267° West 420 483 36,000  Level Cleveland Center
Wed 03:16:08 PM 40.0900 -78.0892 269° West 420 483 36,000  Level Cleveland Center
Wed 03:17:08 PM 40.0889 -78.2411 270° West 420 483 36,000  Level Cleveland Center
Wed 03:18:08 PM 40.0836 -78.3906 267° West 420 483 36,000  Level Cleveland Center
Wed 03:19:08 PM 40.0844 -78.5453 270° West 425 489 36,000  Level Cleveland Center
Wed 03:20:08 PM 40.0786 -78.6972 267° West 425 489 36,000  Level Cleveland Center
Wed 03:21:08 PM 40.0750 -78.8519 268° West 425 489 36,000  Level Cleveland Center
Wed 03:22:08 PM 40.0728 -79.0042 269° West 425 489 36,000  Level Cleveland Center
Wed 03:23:08 PM 40.0686 -79.1533 268° West 420 483 36,000  Level Cleveland Center
Wed 03:24:08 PM 40.0664 -79.3053 269° West 420 483 36,000  Level Cleveland Center
Wed 03:25:08 PM 40.0658 -79.4572 270° West 420 483 36,000  Level Cleveland Center
Wed 03:26:08 PM 40.0608 -79.6092 268° West 420 483 36,000  Level Cleveland Center
Wed 03:27:08 PM 40.0581 -79.7586 269° West 420 483 36,000  Level Cleveland Center
Wed 03:28:08 PM 40.0528 -79.9078 267° West 420 483 36,000  Level Cleveland Center
Wed 03:29:08 PM 40.0492 -80.0569 268° West 420 483 36,000  Level Cleveland Center
Wed 03:30:08 PM 40.0436 -80.2061 267° West 420 483 36,000  Level Cleveland Center
Wed 03:31:08 PM 40.0397 -80.3553 268° West 420 483 36,000  Level Cleveland Center
Wed 03:32:08 PM 40.0339 -80.5044 267° West 420 483 36,000  Level Cleveland Center
Wed 03:33:08 PM 40.0275 -80.6400 267° West 420 483 36,000  Level Cleveland Center
Wed 03:35:27 PM 40.0153 -80.9972 268° West 420 483 36,000  Level Indianapolis Center
Wed 03:36:29 PM 40.0144 -81.1528 270° West 424 488 36,000  Level Indianapolis Center
Wed 03:37:31 PM 40.0119 -81.3061 269° West 421 484 36,000  Level Indianapolis Center
Wed 03:38:33 PM 40.0078 -81.4625 268° West 425 489 36,000  Level Indianapolis Center
Wed 03:39:35 PM 40.0061 -81.6183 269° West 426 490 36,000  Level Indianapolis Center
Wed 03:40:37 PM 40.0022 -81.7869 268° West 426 490 36,000  Level Indianapolis Center
Wed 03:41:39 PM 39.9972 -81.9436 268° West 428 493 36,000  Level Indianapolis Center
Wed 03:42:41 PM 39.9919 -82.1003 268° West 430 495 36,000  Level Indianapolis Center
Wed 03:43:43 PM 39.9881 -82.2589 268° West 433 498 36,000  Level Indianapolis Center
Wed 03:44:45 PM 39.9836 -82.4444 268° West 435 501 36,000  Level Indianapolis Center
Wed 03:45:47 PM 39.9792 -82.6042 268° West 437 503 36,000  Level Indianapolis Center
Wed 03:46:49 PM 39.9739 -82.7633 268° West 437 503 36,000  Level Indianapolis Center
Wed 03:47:51 PM 39.9686 -82.9219 268° West 435 501 36,000  Level Indianapolis Center
Wed 03:48:53 PM 39.9644 -83.0792 268° West 431 496 36,000  Level Indianapolis Center
Wed 03:49:55 PM 39.9617 -83.2367 269° West 432 497 36,000  Level Indianapolis Center
Wed 03:50:57 PM 39.9564 -83.4164 268° West 428 493 36,000  Level Indianapolis Center
Wed 03:52:00 PM 39.9508 -83.5683 267° West 428 493 36,000  Level Indianapolis Center
Wed 03:53:02 PM 39.9458 -83.7200 268° West 423 487 36,000  Level Indianapolis Center
Wed 03:54:04 PM 39.9400 -83.8706 267° West 416 479 36,000  Level Indianapolis Center
Wed 03:55:06 PM 39.9342 -84.0225 267° West 416 479 36,000  Level Indianapolis Center
Wed 03:56:08 PM 39.9267 -84.1978 267° West 413 475 36,000  Level Indianapolis Center
Wed 03:57:10 PM 39.9206 -84.3497 267° West 417 480 36,000  Level Indianapolis Center
Wed 03:58:12 PM 39.9131 -84.5025 266° West 420 483 36,000  Level Indianapolis Center
Wed 03:59:14 PM 39.9053 -84.6539 266° West 417 480 36,000  Level Indianapolis Center
Wed 04:00:16 PM 39.8989 -84.8067 267° West 421 484 36,000  Level Indianapolis Center
Wed 04:01:18 PM 39.8906 -84.9747 266° West 418 481 36,000  Level Indianapolis Center
Wed 04:02:20 PM 39.8831 -85.1261 266° West 420 483 36,000  Level Indianapolis Center
Wed 04:03:22 PM 39.8761 -85.2778 267° West 422 486 36,000 339 Level Indianapolis Center
Wed 04:04:24 PM 39.8681 -85.4292 266° West 420 483 36,700 484 Climbing Indianapolis Center
Wed 04:05:26 PM 39.8544 -85.5789 263° West 420 483 37,000 145 Climbing Indianapolis Center
Wed 04:06:28 PM 39.8219 -85.7550 257° West 419 482 37,000 336 Level Indianapolis Center
Wed 04:07:31 PM 39.7969 -85.9008 257° West 416 479 37,700 480 Climbing Indianapolis Center
Wed 04:08:33 PM 39.7719 -86.0486 258° West 419 482 38,000 145 Climbing Indianapolis Center
Wed 04:09:35 PM 39.7431 -86.2144 257° West 423 487 38,000  Level Indianapolis Center
Wed 04:10:37 PM 39.7100 -86.3564 253° West 416 479 38,000  Level Indianapolis Center
Wed 04:11:39 PM 39.6658 -86.4897 247° West 416 479 38,000  Level Indianapolis Center
Wed 04:12:41 PM 39.6233 -86.6264 248° West 410 472 38,000  Level Indianapolis Center
Wed 04:13:43 PM 39.5800 -86.7631 248° West 412 474 38,000  Level Indianapolis Center
Wed 04:14:45 PM 39.5372 -86.8989 248° West 410 472 38,000  Level Indianapolis Center
Wed 04:15:47 PM 39.4864 -87.0639 248° West 412 474 38,000  Level Indianapolis Center
Wed 04:16:49 PM 39.4431 -87.2011 248° West 413 475 38,000  Level Indianapolis Center
Wed 04:17:51 PM 39.4003 -87.3400 248° West 417 480 38,000  Level Indianapolis Center
Wed 04:18:54 PM 39.3583 -87.4783 249° West 416 479 38,000  Level Indianapolis Center
Wed 04:19:56 PM 39.3169 -87.6172 249° West 416 479 38,000  Level Indianapolis Center
Wed 04:20:58 PM 39.2828 -87.7706 254° West 418 481 38,000  Level Indianapolis Center
Wed 04:22:00 PM 39.2628 -87.9164 260° West 414 476 38,000  Level Indianapolis Center
Wed 04:23:02 PM 39.2364 -88.0922 259° West 416 479 38,000  Level Indianapolis Center
Wed 04:24:07 PM 39.2142 -88.2408 259° West 415 478 38,000  Level Kansas City Center
Wed 04:25:09 PM 39.1986 -88.3889 262° West 417 480 38,000  Level Kansas City Center
Wed 04:26:12 PM 39.1867 -88.5361 264° West 414 476 38,000  Level Kansas City Center
Wed 04:27:14 PM 39.1722 -88.6844 263° West 414 476 38,000  Level Kansas City Center
Wed 04:28:16 PM 39.1572 -88.8625 264° West 416 479 38,000  Level Kansas City Center
Wed 04:29:18 PM 39.1444 -89.0097 264° West 415 478 38,000  Level Kansas City Center
Wed 04:30:20 PM 39.1289 -89.1661 263° West 411 473 38,000  Level Kansas City Center
Wed 04:31:22 PM 39.1150 -89.3142 263° West 416 479 38,000  Level Kansas City Center
Wed 04:32:24 PM 39.1014 -89.4711 264° West 413 475 38,000  Level Kansas City Center
Wed 04:33:26 PM 39.0875 -89.6164 263° West 412 474 38,000  Level Kansas City Center
Wed 04:34:28 PM 39.0733 -89.7733 263° West 412 474 38,000  Level Kansas City Center
Wed 04:35:30 PM 39.0592 -89.9167 263° West 408 470 38,000  Level Kansas City Center
Wed 04:36:32 PM 39.0444 -90.0542 262° West 406 467 38,000  Level Kansas City Center
Wed 04:37:34 PM 39.0294 -90.1967 262° West 406 467 38,000  Level Kansas City Center
Wed 04:38:36 PM 39.0122 -90.3403 261° West 409 471 38,000  Level Kansas City Center
Wed 04:39:38 PM 38.9919 -90.5111 261° West 410 472 38,000  Level Kansas City Center
Wed 04:40:40 PM 38.9761 -90.6544 262° West 410 472 38,000  Level Kansas City Center
Wed 04:41:42 PM 38.9625 -90.7950 263° West 404 465 38,000  Level Kansas City Center
Wed 04:42:44 PM 38.9475 -90.9375 262° West 406 467 38,000  Level Kansas City Center
Wed 04:43:46 PM 38.9322 -91.0797 262° West 406 467 38,000  Level Kansas City Center
Wed 04:44:48 PM 38.9142 -91.2517 262° West 406 467 38,000  Level Kansas City Center
Wed 04:45:50 PM 38.8983 -91.3942 262° West 406 467 38,000  Level Kansas City Center
Wed 04:46:52 PM 38.8825 -91.5367 262° West 406 467 38,000  Level Kansas City Center
Wed 04:47:55 PM 38.8656 -91.6778 261° West 403 464 38,000  Level Kansas City Center
Wed 04:48:57 PM 38.8486 -91.8333 262° West 403 464 38,000  Level Kansas City Center
Wed 04:49:59 PM 38.8303 -91.9736 261° West 402 463 38,000  Level Kansas City Center
Wed 04:51:01 PM 38.8144 -92.1167 262° West 404 465 38,000  Level Kansas City Center
Wed 04:52:03 PM 38.7931 -92.2850 261° West 402 463 38,000  Level Kansas City Center
Wed 04:53:05 PM 38.7747 -92.4258 261° West 402 463 38,000  Level Kansas City Center
Wed 04:54:07 PM 38.7578 -92.5653 261° West 400 460 38,000  Level Kansas City Center
Wed 04:55:09 PM 38.7394 -92.7056 261° West 399 459 38,000  Level Kansas City Center
Wed 04:56:11 PM 38.7211 -92.8469 261° West 401 461 38,000  Level Kansas City Center
Wed 04:57:13 PM 38.7022 -92.9875 260° West 402 463 38,000  Level Kansas City Center
Wed 04:58:15 PM 38.6811 -93.1544 261° West 400 460 38,000  Level Kansas City Center
Wed 04:59:17 PM 38.6622 -93.2953 260° West 401 461 38,000  Level Kansas City Center
Wed 05:00:19 PM 38.6422 -93.4375 260° West 405 466 38,000  Level Kansas City Center
Wed 05:01:21 PM 38.6228 -93.5800 260° West 407 468 38,000  Level Kansas City Center
Wed 05:02:23 PM 38.6036 -93.7242 260° West 411 473 38,000  Level Kansas City Center
Wed 05:03:25 PM 38.5814 -93.8883 260° West 411 473 38,000  Level Kansas City Center
Wed 05:04:27 PM 38.5617 -94.0250 260° West 409 471 38,000  Level Kansas City Center
Wed 05:05:29 PM 38.5383 -94.1847 259° West 409 471 38,000  Level Kansas City Center
Wed 05:06:31 PM 38.5194 -94.3206 260° West 407 468 38,000  Level Kansas City Center
Wed 05:07:33 PM 38.5000 -94.4569 260° West 407 468 38,000  Level Kansas City Center
Wed 05:08:35 PM 38.4758 -94.6181 259° West 412 474 38,000  Level Kansas City Center
Wed 05:09:37 PM 38.4561 -94.7542 260° West 409 471 38,000  Level Kansas City Center
Wed 05:10:39 PM 38.4314 -94.9158 259° West 414 476 38,000  Level Kansas City Center
Wed 05:11:41 PM 38.4122 -95.0525 260° West 410 472 38,000  Level Kansas City Center
Wed 05:12:44 PM 38.3886 -95.2131 259° West 413 475 38,000  Level Kansas City Center
Wed 05:13:46 PM 38.3686 -95.3500 259° West 410 472 38,000  Level Kansas City Center
Wed 05:14:48 PM 38.3450 -95.5139 260° West 416 479 38,000  Level Kansas City Center
Wed 05:15:50 PM 38.3242 -95.6500 259° West 411 473 38,000  Level Kansas City Center
Wed 05:16:52 PM 38.3036 -95.7875 259° West 412 474 38,000  Level Kansas City Center
Wed 05:17:54 PM 38.2792 -95.9481 259° West 413 475 38,000  Level Kansas City Center
Wed 05:18:56 PM 38.2572 -96.0833 258° West 409 471 38,000  Level Kansas City Center
Wed 05:19:58 PM 38.2322 -96.2428 259° West 411 473 38,000  Level Kansas City Center
Wed 05:21:00 PM 38.2097 -96.3781 258° West 410 472 38,000  Level Kansas City Center
Wed 05:22:02 PM 38.1858 -96.5278 259° West 410 472 38,000  Level Kansas City Center
Wed 05:23:04 PM 38.1642 -96.6706 259° West 410 472 38,000  Level Kansas City Center
Wed 05:24:06 PM 38.1419 -96.8114 259° West 408 470 38,000  Level Kansas City Center
Wed 05:25:08 PM 38.1183 -96.9533 258° West 412 474 38,000  Level Kansas City Center
Wed 05:26:10 PM 38.0908 -97.1242 258° West 412 474 38,000  Level Kansas City Center
Wed 05:27:12 PM 38.0661 -97.2669 258° West 415 478 38,000  Level Kansas City Center
Wed 05:28:14 PM 38.0419 -97.4106 258° West 417 480 38,000  Level Kansas City Center
Wed 05:29:16 PM 38.0175 -97.5656 259° West 419 482 38,000  Level Kansas City Center
Wed 05:30:18 PM 37.9992 -97.7111 261° West 420 483 38,000  Level Kansas City Center
Wed 05:31:20 PM 37.9786 -97.8619 260° West 417 480 38,000  Level Kansas City Center
Wed 05:32:22 PM 37.9578 -98.0053 260° West 418 481 38,000  Level Kansas City Center
Wed 05:33:24 PM 37.9392 -98.1567 261° West 421 484 38,000  Level Kansas City Center
Wed 05:34:26 PM 37.9192 -98.3011 260° West 420 483 38,000  Level Kansas City Center
Wed 05:35:28 PM 37.8986 -98.4453 260° West 418 481 38,000  Level Kansas City Center
Wed 05:36:30 PM 37.8725 -98.6192 259° West 419 482 38,000  Level Kansas City Center
Wed 05:37:32 PM 37.8522 -98.7653 260° West 422 486 38,000  Level Kansas City Center
Wed 05:38:35 PM 37.8322 -98.9075 260° West 414 476 38,000  Level Kansas City Center
Wed 05:39:37 PM 37.8114 -99.0508 260° West 414 476 38,000  Level Kansas City Center
Wed 05:40:39 PM 37.7911 -99.1942 260° West 415 478 38,000  Level Kansas City Center
Wed 05:41:41 PM 37.7700 -99.3369 259° West 414 476 38,000  Level Kansas City Center
Wed 05:42:43 PM 37.7442 -99.5133 260° West 413 475 38,000  Level Kansas City Center
Wed 05:43:45 PM 37.7244 -99.6492 260° West 412 474 38,000  Level Kansas City Center
Wed 05:44:47 PM 37.7036 -99.7861 259° West 414 476 38,000  Level Kansas City Center
Wed 05:45:49 PM 37.6786 -99.9464 259° West 415 478 38,000  Level Kansas City Center
Wed 05:46:51 PM 37.6578 -100.0822 259° West 413 475 38,000  Level Kansas City Center
Wed 05:47:53 PM 37.6344 -100.2406 260° West 411 473 38,000  Level Kansas City Center
Wed 05:48:55 PM 37.6125 -100.3778 259° West 415 478 38,000  Level Kansas City Center
Wed 05:49:57 PM 37.5900 -100.5372 260° West 417 480 38,000  Level Kansas City Center
Wed 05:50:59 PM 37.5686 -100.6808 259° West 416 479 38,000  Level Kansas City Center
Wed 05:52:01 PM 37.5453 -100.8253 259° West 420 483 38,000  Level Kansas City Center
Wed 05:53:03 PM 37.5214 -100.9722 258° West 427 491 38,000  Level Kansas City Center
Wed 05:54:05 PM 37.5000 -101.1164 259° West 422 486 38,000  Level Kansas City Center
Wed 05:55:07 PM 37.4739 -101.2844 259° West 417 480 38,000  Level Kansas City Center
Wed 05:56:09 PM 37.4514 -101.4228 258° West 420 483 38,000  Level Kansas City Center
Wed 05:57:11 PM 37.4247 -101.5833 258° West 420 483 38,000  Level Kansas City Center
Wed 05:58:13 PM 37.4017 -101.7222 258° West 422 486 38,000  Level Kansas City Center
Wed 05:59:15 PM 37.3742 -101.8839 258° West 422 486 38,000  Level Kansas City Center
Wed 06:00:17 PM 37.3497 -102.0236 258° West 427 491 38,000  Level Kansas City Center
Wed 06:01:19 PM 37.3231 -102.1842 258° West 421 484 38,000  Level Kansas City Center
Wed 06:02:21 PM 37.2989 -102.3228 258° West 424 488 38,000  Level Kansas City Center
Wed 06:03:05 PM 37.2811 -102.4303 258° West 427 491 38,000 453 Level Albuquerque Center
Wed 06:04:07 PM 37.2575 -102.5689 258° West 424 488 38,800 927 Climbing Albuquerque Center
Wed 06:05:08 PM 37.2267 -102.7272 256° West 419 482 39,900 585 Climbing Albuquerque Center
Wed 06:06:10 PM 37.2022 -102.8631 257° West 417 480 40,000 48 Climbing Albuquerque Center
Wed 06:07:12 PM 37.1725 -103.0219 257° West 418 481 40,000  Level Albuquerque Center
Wed 06:08:14 PM 37.1475 -103.1575 257° West 417 480 40,000  Level Albuquerque Center
Wed 06:09:15 PM 37.1192 -103.3147 257° West 414 476 40,000  Level Albuquerque Center
Wed 06:11:12 PM 37.0778 -103.5372 257° West 412 474 40,000  Level Denver Center
Wed 06:12:08 PM 37.0450 -103.7192 257° West 415 478 40,000  Level Albuquerque Center
Wed 06:13:09 PM 37.0197 -103.8550 257° West 416 479 40,000  Level Albuquerque Center
Wed 06:14:11 PM 36.9944 -103.9919 257° West 419 482 40,000  Level Albuquerque Center
Wed 06:15:13 PM 36.9644 -104.1517 257° West 420 483 40,000  Level Albuquerque Center
Wed 06:16:14 PM 36.9386 -104.2892 257° West 421 484 40,000  Level Albuquerque Center
Wed 06:17:16 PM 36.9086 -104.4489 257° West 421 484 40,000  Level Albuquerque Center
Wed 06:18:18 PM 36.8828 -104.5867 257° West 424 488 40,000  Level Albuquerque Center
Wed 06:19:20 PM 36.8567 -104.7231 257° West 422 486 40,000  Level Albuquerque Center
Wed 06:20:21 PM 36.8253 -104.8836 256° West 426 490 40,000  Level Albuquerque Center
Wed 06:21:23 PM 36.7986 -105.0214 256° West 425 489 40,000  Level Albuquerque Center
Wed 06:22:25 PM 36.7664 -105.1803 256° West 423 487 40,000  Level Albuquerque Center
Wed 06:23:27 PM 36.7400 -105.3186 257° West 427 491 40,000  Level Albuquerque Center
Wed 06:24:28 PM 36.7067 -105.4781 255° West 427 491 40,000  Level Albuquerque Center
Wed 06:25:30 PM 36.6786 -105.6061 255° West 429 494 40,000  Level Albuquerque Center
Wed 06:26:32 PM 36.6492 -105.7489 256° West 428 493 40,000  Level Albuquerque Center
Wed 06:27:34 PM 36.6181 -105.9022 256° West 434 499 40,000  Level Albuquerque Center
Wed 06:28:36 PM 36.5856 -106.0611 256° West 428 493 40,000  Level Albuquerque Center
Wed 06:29:37 PM 36.5561 -106.1989 255° West 429 494 40,000  Level Albuquerque Center
Wed 06:30:40 PM 36.5231 -106.3564 255° West 423 487 40,000  Level Albuquerque Center
Wed 06:31:41 PM 36.4953 -106.4944 256° West 428 493 40,000  Level Albuquerque Center
Wed 06:32:43 PM 36.4603 -106.6539 255° West 428 493 40,000  Level Albuquerque Center
Wed 06:33:45 PM 36.4317 -106.7894 255° West 426 490 40,000  Level Albuquerque Center
Wed 06:34:47 PM 36.4028 -106.9269 255° West 429 494 40,000  Level Albuquerque Center
Wed 06:35:49 PM 36.3686 -107.0864 255° West 428 493 40,000  Level Albuquerque Center
Wed 06:36:51 PM 36.3397 -107.2233 255° West 429 494 40,000  Level Albuquerque Center
Wed 06:37:52 PM 36.3047 -107.3833 255° West 430 495 40,000  Level Albuquerque Center
Wed 06:38:54 PM 36.2750 -107.5200 255° West 430 495 40,000  Level Albuquerque Center
Wed 06:40:58 PM 36.2078 -107.8194 255° West 434 499 40,000  Level Albuquerque Center
Wed 06:41:59 PM 36.1728 -107.9814 255° West 436 502 40,000  Level Albuquerque Center
Wed 06:43:01 PM 36.1406 -108.1197 254° West 437 503 40,000  Level Albuquerque Center
Wed 06:44:03 PM 36.1081 -108.2572 254° West 436 502 40,000  Level Albuquerque Center
Wed 06:45:04 PM 36.0711 -108.4186 254° West 435 501 40,000  Level Albuquerque Center
Wed 06:46:06 PM 36.0419 -108.5464 254° West 438 504 40,000  Level Albuquerque Center
Wed 06:47:08 PM 36.0061 -108.6925 253° West 445 512 40,000  Level Albuquerque Center
Wed 06:48:09 PM 35.9650 -108.8622 253° West 436 502 40,000  Level Albuquerque Center
Wed 06:49:11 PM 35.9306 -109.0056 254° West 437 503 40,000  Level Albuquerque Center
Wed 06:50:12 PM 35.8928 -109.1611 253° West 433 498 40,000  Level Albuquerque Center
Wed 06:51:14 PM 35.8608 -109.2975 254° West 432 497 40,000  Level Albuquerque Center
Wed 06:52:16 PM 35.8283 -109.4331 254° West 431 496 40,000  Level Albuquerque Center
Wed 06:53:17 PM 35.7892 -109.5914 253° West 432 497 40,000  Level Albuquerque Center
Wed 06:54:19 PM 35.7642 -109.7281 257° West 427 491 40,000  Level Albuquerque Center
Wed 06:55:20 PM 35.7511 -109.8919 264° West 429 494 40,000  Level Albuquerque Center
Wed 06:56:22 PM 35.7442 -110.0325 267° West 429 494 40,000  Level Albuquerque Center
Wed 06:57:23 PM 35.7147 -110.1697 255° West 435 501 40,000  Level Albuquerque Center
Wed 06:58:25 PM 35.6717 -110.3250 251° West 431 496 40,000  Level Albuquerque Center
Wed 06:59:39 PM 35.6311 -110.4825 252° West 433 498 40,000  Level Albuquerque Center
Wed 07:00:40 PM 35.5886 -110.6392 252° West 434 499 40,000  Level Albuquerque Center
Wed 07:01:42 PM 35.5503 -110.7753 251° West 437 503 40,000  Level Albuquerque Center
Wed 07:02:44 PM 35.5072 -110.9339 252° West 439 505 40,000  Level Albuquerque Center
Wed 07:03:45 PM 35.4700 -111.0711 252° West 441 507 40,000  Level Albuquerque Center
Wed 07:04:47 PM 35.4275 -111.2311 252° West 442 509 40,000  Level Albuquerque Center
Wed 07:05:48 PM 35.3906 -111.3697 252° West 445 512 40,000  Level Albuquerque Center
Wed 07:06:50 PM 35.3536 -111.5189 253° West 450 518 40,000  Level Albuquerque Center
Wed 07:07:52 PM 35.3000 -111.6514 244° Southwest 444 511 40,000  Level Albuquerque Center
Wed 07:08:53 PM 35.2369 -111.7789 239° Southwest 441 507 40,000  Level Albuquerque Center
Wed 07:09:55 PM 35.1742 -111.9064 239° Southwest 441 507 40,000  Level Albuquerque Center
Wed 07:10:56 PM 35.1103 -112.0344 239° Southwest 442 509 40,000  Level Albuquerque Center
Wed 07:11:58 PM 35.0333 -112.1894 239° Southwest 445 512 40,000  Level Albuquerque Center
Wed 07:13:00 PM 34.9692 -112.3181 239° Southwest 445 512 40,000  Level Albuquerque Center
Wed 07:14:01 PM 34.9044 -112.4464 238° Southwest 445 512 40,000  Level Albuquerque Center
Wed 07:15:03 PM 34.8417 -112.5758 239° Southwest 444 511 40,000  Level Albuquerque Center
Wed 07:16:04 PM 34.7786 -112.7061 240° Southwest 446 513 40,000  Level Albuquerque Center
Wed 07:17:06 PM 34.7150 -112.8369 239° Southwest 449 517 40,000  Level Albuquerque Center
Wed 07:18:08 PM 34.6603 -112.9731 244° Southwest 448 516 40,000  Level Albuquerque Center
Wed 07:19:09 PM 34.6106 -113.1114 246° West 448 516 40,000  Level Albuquerque Center
Wed 07:20:11 PM 34.5633 -113.2817 251° West 445 512 40,000  Level Albuquerque Center
Wed 07:21:12 PM 34.5383 -113.4267 258° West 441 507 40,000  Level Albuquerque Center
Wed 07:22:14 PM 34.5133 -113.5725 258° West 443 510 40,000  Level Albuquerque Center
Wed 07:23:16 PM 34.4842 -113.7342 258° West 440 506 40,000  Level Albuquerque Center
Wed 07:24:17 PM 34.4594 -113.8789 258° West 438 504 40,000  Level Albuquerque Center
Wed 07:25:19 PM 34.4347 -114.0222 258° West 436 502 40,000  Level Albuquerque Center
Wed 07:26:20 PM 34.4103 -114.1644 258° West 432 497 40,000  Level Albuquerque Center
Wed 07:27:22 PM 34.3869 -114.3072 259° West 432 497 40,000  Level Albuquerque Center
Wed 07:28:23 PM 34.3614 -114.4489 258° West 431 496 40,000 -166 Level Albuquerque Center
Wed 07:29:47 PM 34.3272 -114.6497 258° West 420 483 39,600 -534 Descending Los Angeles Center
Wed 07:30:49 PM 34.3025 -114.7803 257° West 404 465 38,700 -1,161 Descending Los Angeles Center
Wed 07:31:51 PM 34.2767 -114.9111 257° West 401 461 37,200 -1,392 Descending Los Angeles Center
Wed 07:32:54 PM 34.2506 -115.0464 257° West 412 474 35,800 -1,344 Descending Los Angeles Center
Wed 07:33:56 PM 34.2239 -115.1819 257° West 415 478 34,400 -1,016 Descending Los Angeles Center
Wed 07:34:58 PM 34.1922 -115.3464 257° West 418 481 33,700 -968 Descending Los Angeles Center
Wed 07:36:00 PM 34.1667 -115.4831 257° West 418 481 32,400 -1,403 Descending Los Angeles Center
Wed 07:37:02 PM 34.1386 -115.6261 257° West 434 499 30,800 -1,355 Descending Los Angeles Center
Wed 07:38:04 PM 34.1122 -115.7681 257° West 437 503 29,600 -1,113 Descending Los Angeles Center
Wed 07:39:06 PM 34.0919 -115.9044 260° West 422 486 28,500 -1,452 Descending Los Angeles Center
Wed 07:40:08 PM 34.0692 -116.0633 260° West 405 466 26,600 -1,920 Descending Los Angeles Center
Wed 07:41:11 PM 34.0506 -116.1867 260° West 380 437 24,500 -1,248 Descending Los Angeles Center
Wed 07:42:13 PM 34.0328 -116.3092 260° West 374 430 24,000 -683 Descending Los Angeles Center
Wed 07:43:14 PM 34.0175 -116.4106 260° West 382 440 23,100 -1,355 Descending Los Angeles Center
Wed 07:44:17 PM 34.0006 -116.5581 262° West 374 430 21,200 -1,584 Descending Los Angeles Center
Wed 07:45:19 PM 33.9908 -116.6786 264° West 365 420 19,800 -1,500 Descending Los Angeles Center
Wed 07:46:21 PM 33.9792 -116.8228 264° West 362 417 18,100 -1,226 Descending Los Angeles Center
Wed 07:47:36 PM 33.9667 -116.9667 264° West 338 389 17,000 -489 Descending Southern California TRACON
Wed 07:48:36 PM 33.9500 -117.0833 260° West 340 391 17,000 -250 Level Southern California TRACON
Wed 07:49:36 PM 33.9500 -117.2000 270° West 339 390 16,500 -1,300 Descending Southern California TRACON
Wed 07:50:36 PM 33.9333 -117.3000 259° West 330 380 14,400 -1,450 Descending Southern California TRACON
Wed 07:51:36 PM 33.9500 -117.4167 280° West 316 364 13,600 -1,150 Descending Southern California TRACON
Wed 07:52:36 PM 33.9833 -117.5000 296° West 302 348 12,100 -1,800 Descending Southern California TRACON
Wed 07:53:36 PM 34.0167 -117.6000 292° West 315 362 10,000 -1,091 Descending Southern California TRACON
Wed 07:54:37 PM 34.0000 -117.6833 256° West 243 280 9,900 -298 Descending Southern California TRACON
Wed 07:55:37 PM 34.0000 -117.7667 270° West 239 275 9,400 -900 Descending Southern California TRACON
Wed 07:56:37 PM 34.0000 -117.8333 270° West 201 231 8,100 -1,200 Descending Southern California TRACON
Wed 07:57:37 PM 33.9833 -117.9000 253° West 200 230 7,000 -1,200 Descending Southern California TRACON
Wed 07:58:37 PM 33.9833 -117.9667 270° West 182 209 5,700 -1,000 Descending Southern California TRACON
Wed 07:59:37 PM 33.9667 -118.0167 248° West 172 198 5,000 -400 Descending Southern California TRACON
Wed 08:00:37 PM 33.9667 -118.0833 270° West 170 196 4,900 -450 Descending Southern California TRACON
Wed 08:01:37 PM 33.9667 -118.1333 270° West 166 191 4,100 -843 Descending Southern California TRACON
Wed 08:02:38 PM 33.9500 -118.1833 248° West 176 203 3,200 -885 Descending Southern California TRACON

Login

Don't have an account? Register now (free) for customized features, flight alerts, and more!